createdAt,value
2017-11-05T00:00:46.683Z,0
2017-11-05T00:01:55.223Z,0
2017-11-05T00:03:04.779Z,0
2017-11-05T00:04:13.326Z,0
2017-11-05T00:05:21.869Z,0
2017-11-05T00:06:31.420Z,0
2017-11-05T00:07:39.965Z,0
2017-11-05T00:08:48.845Z,0
2017-11-05T00:09:57.720Z,0
2017-11-05T00:11:06.943Z,0
2017-11-05T00:12:15.823Z,0
2017-11-05T00:13:24.368Z,0
2017-11-05T00:14:33.249Z,0
2017-11-05T00:15:42.462Z,0
2017-11-05T00:16:51.340Z,0
2017-11-05T00:17:59.881Z,0
2017-11-05T00:19:09.099Z,0
2017-11-05T00:20:17.643Z,0
2017-11-05T00:21:26.522Z,0
2017-11-05T00:22:36.085Z,0
2017-11-05T00:23:45.646Z,0
2017-11-05T00:24:54.525Z,0
2017-11-05T00:26:03.067Z,0
2017-11-05T00:27:11.606Z,0
2017-11-05T00:28:20.153Z,0
2017-11-05T00:29:29.031Z,0
2017-11-05T00:30:37.911Z,0
2017-11-05T00:31:47.125Z,0
2017-11-05T00:32:56.681Z,0
2017-11-05T00:34:05.560Z,0
2017-11-05T00:35:14.777Z,0
2017-11-05T00:36:23.319Z,0
2017-11-05T00:37:32.888Z,0
2017-11-05T00:38:41.430Z,0
2017-11-05T00:39:50.312Z,0
2017-11-05T00:40:59.190Z,0
2017-11-05T00:42:07.729Z,0
2017-11-05T00:43:16.605Z,0
2017-11-05T00:44:25.195Z,0
2017-11-05T00:45:34.079Z,0
2017-11-05T00:46:42.959Z,0
2017-11-05T00:47:52.174Z,0
2017-11-05T00:49:01.051Z,0
2017-11-05T00:50:10.323Z,0
2017-11-05T00:51:18.865Z,0
2017-11-05T00:52:27.749Z,0
2017-11-05T00:53:36.622Z,0
2017-11-05T00:54:45.166Z,0
2017-11-05T00:55:53.702Z,0
2017-11-05T00:57:02.242Z,0
2017-11-05T00:58:11.124Z,0
2017-11-05T00:59:20.336Z,0
2017-11-05T01:00:29.548Z,0
2017-11-05T01:01:38.090Z,0
2017-11-05T01:02:46.630Z,0
2017-11-05T01:03:55.170Z,0
2017-11-05T01:05:04.049Z,0
2017-11-05T01:06:12.592Z,0
2017-11-05T01:07:21.463Z,0
2017-11-05T01:08:30.009Z,0
2017-11-05T01:09:38.883Z,0
2017-11-05T01:10:47.759Z,0
2017-11-05T01:11:56.638Z,0
2017-11-05T01:13:05.228Z,0
2017-11-05T01:14:13.774Z,0
2017-11-05T01:15:22.644Z,0
2017-11-05T01:16:31.192Z,0
2017-11-05T01:17:39.732Z,0
2017-11-05T01:18:48.278Z,0
2017-11-05T01:19:57.491Z,0
2017-11-05T01:21:06.034Z,0
2017-11-05T01:22:15.256Z,0
2017-11-05T01:23:24.467Z,0
2017-11-05T01:24:33.008Z,0
2017-11-05T01:25:41.893Z,0
2017-11-05T01:26:51.102Z,0
2017-11-05T01:27:59.653Z,0
2017-11-05T01:29:08.212Z,0
2017-11-05T01:30:17.423Z,0
2017-11-05T01:31:26.301Z,0
2017-11-05T01:32:35.199Z,0
2017-11-05T01:33:44.412Z,0
2017-11-05T01:34:52.951Z,0
2017-11-05T01:36:01.496Z,0
2017-11-05T01:37:11.050Z,0
2017-11-05T01:38:19.592Z,0
2017-11-05T01:39:28.132Z,0
2017-11-05T01:40:37.013Z,0
2017-11-05T01:41:45.553Z,0
2017-11-05T01:42:54.096Z,0
2017-11-05T01:44:02.637Z,0
2017-11-05T01:45:11.516Z,0
2017-11-05T01:46:20.396Z,0
2017-11-05T01:47:29.278Z,0
2017-11-05T01:48:38.154Z,0
2017-11-05T01:49:47.046Z,0
2017-11-05T01:50:56.253Z,0
2017-11-05T01:52:05.130Z,0
2017-11-05T01:53:13.670Z,0
2017-11-05T01:54:22.209Z,0
2017-11-05T01:55:30.754Z,0
2017-11-05T01:56:39.969Z,0
2017-11-05T01:57:49.188Z,0
2017-11-05T01:58:57.738Z,0
2017-11-05T02:00:06.614Z,0
2017-11-05T02:01:15.156Z,0
2017-11-05T02:02:24.373Z,0
2017-11-05T02:03:33.260Z,0
2017-11-05T02:04:42.137Z,0
2017-11-05T02:05:51.402Z,0
2017-11-05T02:07:00.636Z,0
2017-11-05T02:08:09.515Z,0
2017-11-05T02:09:18.390Z,0
2017-11-05T02:10:27.602Z,0
2017-11-05T02:11:36.833Z,0
2017-11-05T02:12:45.709Z,0
2017-11-05T02:13:54.249Z,0
2017-11-05T02:15:03.125Z,0
2017-11-05T02:16:12.002Z,0
2017-11-05T02:17:20.882Z,0
2017-11-05T02:18:29.758Z,0
2017-11-05T02:19:38.634Z,0
2017-11-05T02:20:47.526Z,0
2017-11-05T02:21:56.756Z,0
2017-11-05T02:23:05.300Z,0
2017-11-05T02:24:13.842Z,0
2017-11-05T02:25:22.380Z,0
2017-11-05T02:26:30.922Z,0
2017-11-05T02:27:39.912Z,0
2017-11-05T02:28:48.785Z,0
2017-11-05T02:29:58.008Z,0
2017-11-05T02:31:07.228Z,0
2017-11-05T02:32:15.771Z,0
2017-11-05T02:33:24.982Z,0
2017-11-05T02:34:34.196Z,0
2017-11-05T02:35:43.079Z,0
2017-11-05T02:36:51.618Z,0
2017-11-05T02:38:00.834Z,0
2017-11-05T02:39:10.059Z,0
2017-11-05T02:40:18.937Z,0
2017-11-05T02:41:27.811Z,0
2017-11-05T02:42:37.020Z,0
2017-11-05T02:43:45.899Z,0
2017-11-05T02:44:55.114Z,0
2017-11-05T02:46:04.330Z,0
2017-11-05T02:47:13.215Z,0
2017-11-05T02:48:21.750Z,0
2017-11-05T02:49:30.632Z,0
2017-11-05T02:50:39.851Z,0
2017-11-05T02:51:48.724Z,0
2017-11-05T02:52:57.937Z,0
2017-11-05T02:54:07.266Z,0
2017-11-05T02:55:15.900Z,0
2017-11-05T02:56:24.775Z,0
2017-11-05T02:57:33.999Z,0
2017-11-05T02:58:43.130Z,0
2017-11-05T02:59:52.010Z,0
2017-11-05T03:01:01.565Z,0
2017-11-05T03:02:10.445Z,0
2017-11-05T03:03:18.985Z,0
2017-11-05T03:04:27.857Z,0
2017-11-05T03:05:36.731Z,0
2017-11-05T03:06:45.943Z,0
2017-11-05T03:07:54.483Z,0
2017-11-05T03:09:03.363Z,0
2017-11-05T03:10:11.905Z,0
2017-11-05T03:11:20.445Z,0
2017-11-05T03:12:29.660Z,0
2017-11-05T03:13:38.198Z,0
2017-11-05T03:14:47.087Z,0
2017-11-05T03:15:55.629Z,0
2017-11-05T03:17:04.507Z,0
2017-11-05T03:18:13.384Z,0
2017-11-05T03:19:22.937Z,0
2017-11-05T03:20:32.161Z,0
2017-11-05T03:21:41.034Z,0
2017-11-05T03:22:49.577Z,0
2017-11-05T03:23:58.789Z,0
2017-11-05T03:25:08.334Z,0
2017-11-05T03:26:17.217Z,0
2017-11-05T03:27:26.109Z,0
2017-11-05T03:28:34.635Z,0
2017-11-05T03:29:43.176Z,0
2017-11-05T03:30:51.722Z,0
2017-11-05T03:32:00.957Z,0
2017-11-05T03:33:09.501Z,0
2017-11-05T03:34:18.374Z,0
2017-11-05T03:35:26.915Z,0
2017-11-05T03:36:35.456Z,0
2017-11-05T03:37:43.998Z,0
2017-11-05T03:38:52.539Z,0
2017-11-05T03:40:01.418Z,0
2017-11-05T03:41:10.979Z,0
2017-11-05T03:42:19.860Z,0
2017-11-05T03:43:29.083Z,0
2017-11-05T03:44:37.625Z,0
2017-11-05T03:45:46.165Z,0
2017-11-05T03:46:55.043Z,0
2017-11-05T03:48:03.933Z,0
2017-11-05T03:49:12.796Z,0
2017-11-05T03:50:22.062Z,0
2017-11-05T03:51:30.939Z,0
2017-11-05T03:52:39.813Z,0
2017-11-05T03:53:48.364Z,0
2017-11-05T03:54:57.242Z,0
2017-11-05T03:56:06.121Z,0
2017-11-05T03:57:15.331Z,0
2017-11-05T03:58:24.208Z,0
2017-11-05T03:59:33.426Z,0
2017-11-05T04:00:42.306Z,0
2017-11-05T04:01:51.853Z,0
2017-11-05T04:03:00.729Z,0
2017-11-05T04:04:09.944Z,0
2017-11-05T04:05:18.823Z,0
2017-11-05T04:06:28.067Z,0
2017-11-05T04:07:36.939Z,0
2017-11-05T04:08:45.482Z,0
2017-11-05T04:09:55.373Z,0
2017-11-05T04:11:04.248Z,0
2017-11-05T04:12:12.796Z,0
2017-11-05T04:13:21.667Z,0
2017-11-05T04:14:30.547Z,0
2017-11-05T04:15:39.429Z,0
2017-11-05T04:16:47.969Z,0
2017-11-05T04:17:56.509Z,0
2017-11-05T04:19:05.386Z,0
2017-11-05T04:20:14.266Z,0
2017-11-05T04:21:23.144Z,0
2017-11-05T04:22:31.685Z,0
2017-11-05T04:23:40.227Z,0
2017-11-05T04:24:48.766Z,0
2017-11-05T04:25:57.645Z,0
2017-11-05T04:27:06.519Z,0
2017-11-05T04:28:15.063Z,0
2017-11-05T04:29:23.616Z,0
2017-11-05T04:30:32.145Z,0
2017-11-05T04:31:41.016Z,0
2017-11-05T04:32:49.556Z,0
2017-11-05T04:33:58.096Z,0
2017-11-05T04:35:06.971Z,0
2017-11-05T04:36:15.847Z,0
2017-11-05T04:37:25.060Z,0
2017-11-05T04:38:34.277Z,0
2017-11-05T04:39:43.495Z,0
2017-11-05T04:40:52.373Z,0
2017-11-05T04:42:01.254Z,0
2017-11-05T04:43:09.796Z,0
2017-11-05T04:44:18.334Z,0
2017-11-05T04:45:27.207Z,0
2017-11-05T04:46:36.089Z,0
2017-11-05T04:47:44.629Z,0
2017-11-05T04:48:53.841Z,0
2017-11-05T04:50:03.068Z,0
2017-11-05T04:51:11.601Z,0
2017-11-05T04:52:20.502Z,0
2017-11-05T04:53:29.045Z,0
2017-11-05T04:54:37.925Z,0
2017-11-05T04:55:46.798Z,0
2017-11-05T04:56:55.344Z,0
2017-11-05T04:58:04.227Z,0
2017-11-05T04:59:13.119Z,0
2017-11-05T05:00:21.994Z,0
2017-11-05T05:01:31.203Z,0
2017-11-05T05:02:40.105Z,0
2017-11-05T05:03:48.970Z,0
2017-11-05T05:04:57.850Z,0
2017-11-05T05:06:06.388Z,0
2017-11-05T05:07:15.264Z,0
2017-11-05T05:08:23.855Z,0
2017-11-05T05:09:32.400Z,0
2017-11-05T05:10:41.615Z,0
2017-11-05T05:11:50.155Z,0
2017-11-05T05:12:59.031Z,0
2017-11-05T05:14:08.244Z,0
2017-11-05T05:15:17.121Z,0
2017-11-05T05:16:26.000Z,0
2017-11-05T05:17:34.542Z,0
2017-11-05T05:18:43.414Z,0
2017-11-05T05:19:52.975Z,0
2017-11-05T05:21:02.527Z,0
2017-11-05T05:22:11.404Z,0
2017-11-05T05:23:20.284Z,0
2017-11-05T05:24:28.821Z,0
2017-11-05T05:25:37.749Z,0
2017-11-05T05:26:46.288Z,0
2017-11-05T05:27:54.826Z,0
2017-11-05T05:29:03.700Z,0
2017-11-05T05:30:12.582Z,0
2017-11-05T05:31:21.124Z,0
2017-11-05T05:32:30.333Z,0
2017-11-05T05:33:39.206Z,0
2017-11-05T05:34:47.747Z,0
2017-11-05T05:35:56.625Z,0
2017-11-05T05:37:05.163Z,0
2017-11-05T05:38:14.048Z,0
2017-11-05T05:39:22.925Z,0
2017-11-05T05:40:31.468Z,0
2017-11-05T05:41:40.684Z,0
2017-11-05T05:42:49.278Z,0
2017-11-05T05:43:57.815Z,0
2017-11-05T05:45:06.689Z,0
2017-11-05T05:46:15.229Z,0
2017-11-05T05:47:23.795Z,0
2017-11-05T05:48:32.647Z,0
2017-11-05T05:49:41.186Z,0
2017-11-05T05:50:50.060Z,0
2017-11-05T05:51:58.938Z,0
2017-11-05T05:53:08.201Z,0
2017-11-05T05:54:17.080Z,0
2017-11-05T05:55:25.622Z,0
2017-11-05T05:56:34.503Z,0
2017-11-05T05:57:43.713Z,0
2017-11-05T05:58:52.953Z,0
2017-11-05T06:00:02.164Z,0
2017-11-05T06:01:11.380Z,0
2017-11-05T06:02:19.923Z,0
2017-11-05T06:03:29.137Z,0
2017-11-05T06:04:38.015Z,0
2017-11-05T06:05:46.888Z,0
2017-11-05T06:06:55.761Z,0
2017-11-05T06:08:04.301Z,0
2017-11-05T06:09:13.518Z,0
2017-11-05T06:10:22.054Z,0
2017-11-05T06:11:30.600Z,4
2017-11-05T06:12:39.138Z,4
2017-11-05T06:13:48.013Z,0
2017-11-05T06:14:56.553Z,4
2017-11-05T06:16:05.442Z,4
2017-11-05T06:17:13.986Z,4
2017-11-05T06:18:22.854Z,8
2017-11-05T06:19:31.732Z,8
2017-11-05T06:20:40.947Z,8
2017-11-05T06:21:49.821Z,8
2017-11-05T06:22:59.373Z,12
2017-11-05T06:24:07.965Z,16
2017-11-05T06:25:16.845Z,16
2017-11-05T06:26:25.384Z,20
2017-11-05T06:27:33.921Z,20
2017-11-05T06:28:43.132Z,24
2017-11-05T06:29:52.006Z,28
2017-11-05T06:31:00.884Z,28
2017-11-05T06:32:09.426Z,32
2017-11-05T06:33:17.962Z,36
2017-11-05T06:34:26.504Z,40
2017-11-05T06:35:35.041Z,40
2017-11-05T06:36:43.581Z,36
2017-11-05T06:37:52.462Z,44
2017-11-05T06:39:01.356Z,48
2017-11-05T06:40:10.567Z,48
2017-11-05T06:41:19.110Z,48
2017-11-05T06:42:28.320Z,52
2017-11-05T06:43:36.864Z,60
2017-11-05T06:44:45.734Z,68
2017-11-05T06:45:54.944Z,84
2017-11-05T06:47:03.818Z,96
2017-11-05T06:48:12.694Z,104
2017-11-05T06:49:21.237Z,108
2017-11-05T06:50:30.117Z,116
2017-11-05T06:51:38.656Z,132
2017-11-05T06:52:47.194Z,152
2017-11-05T06:53:56.071Z,164
2017-11-05T06:55:04.948Z,184
2017-11-05T06:56:14.157Z,204
2017-11-05T06:57:23.032Z,240
2017-11-05T06:58:31.571Z,288
2017-11-05T06:59:40.454Z,352
2017-11-05T07:00:49.670Z,400
2017-11-05T07:01:58.546Z,432
2017-11-05T07:03:07.084Z,468
2017-11-05T07:04:16.671Z,516
2017-11-05T07:05:25.262Z,568
2017-11-05T07:06:34.476Z,624
2017-11-05T07:07:43.349Z,684
2017-11-05T07:08:52.227Z,740
2017-11-05T07:10:01.108Z,784
2017-11-05T07:11:09.993Z,824
2017-11-05T07:12:19.207Z,848
2017-11-05T07:13:28.429Z,808
2017-11-05T07:14:36.970Z,732
2017-11-05T07:15:45.508Z,704
2017-11-05T07:16:54.379Z,712
2017-11-05T07:18:03.257Z,680
2017-11-05T07:19:12.134Z,648
2017-11-05T07:20:20.666Z,648
2017-11-05T07:21:29.886Z,648
2017-11-05T07:22:38.420Z,604
2017-11-05T07:23:47.293Z,596
2017-11-05T07:24:56.844Z,604
2017-11-05T07:26:05.718Z,600
2017-11-05T07:27:14.258Z,616
2017-11-05T07:28:23.132Z,644
2017-11-05T07:29:32.343Z,656
2017-11-05T07:30:40.879Z,648
2017-11-05T07:31:49.416Z,632
2017-11-05T07:32:57.955Z,612
2017-11-05T07:34:06.826Z,600
2017-11-05T07:35:15.367Z,604
2017-11-05T07:36:23.908Z,608
2017-11-05T07:37:32.448Z,612
2017-11-05T07:38:40.989Z,600
2017-11-05T07:39:49.534Z,584
2017-11-05T07:40:59.078Z,580
2017-11-05T07:42:07.619Z,608
2017-11-05T07:43:16.158Z,676
2017-11-05T07:44:25.038Z,764
2017-11-05T07:45:33.582Z,832
2017-11-05T07:46:42.456Z,844
2017-11-05T07:47:51.713Z,772
2017-11-05T07:49:01.263Z,768
2017-11-05T07:50:10.143Z,812
2017-11-05T07:51:18.684Z,848
2017-11-05T07:52:27.228Z,836
2017-11-05T07:53:35.763Z,816
2017-11-05T07:54:44.637Z,884
2017-11-05T07:55:53.512Z,920
2017-11-05T07:57:02.390Z,900
2017-11-05T07:58:11.604Z,984
2017-11-05T07:59:20.486Z,952
2017-11-05T08:00:29.360Z,884
2017-11-05T08:01:38.234Z,848
2017-11-05T08:02:46.773Z,848
2017-11-05T08:03:55.311Z,860
2017-11-05T08:05:03.854Z,900
2017-11-05T08:06:13.742Z,956
2017-11-05T08:07:23.295Z,952
2017-11-05T08:08:32.172Z,924
2017-11-05T08:09:40.717Z,912
2017-11-05T08:10:49.590Z,932
2017-11-05T08:11:58.126Z,1016
2017-11-05T08:13:07.346Z,1060
2017-11-05T08:14:15.888Z,1124
2017-11-05T08:15:24.772Z,1224
2017-11-05T08:16:33.988Z,1260
2017-11-05T08:17:43.198Z,1264
2017-11-05T08:18:52.074Z,1240
2017-11-05T08:20:00.952Z,1208
2017-11-05T08:21:09.489Z,1204
2017-11-05T08:22:18.366Z,1196
2017-11-05T08:23:27.240Z,1180
2017-11-05T08:24:36.800Z,1164
2017-11-05T08:25:45.673Z,1144
2017-11-05T08:26:54.883Z,1176
2017-11-05T08:28:03.423Z,1228
2017-11-05T08:29:12.600Z,1220
2017-11-05T08:30:21.811Z,1248
2017-11-05T08:31:30.351Z,1356
2017-11-05T08:32:39.226Z,1396
2017-11-05T08:33:48.439Z,1400
2017-11-05T08:34:57.310Z,1480
2017-11-05T08:36:06.184Z,1628
2017-11-05T08:37:15.060Z,1772
2017-11-05T08:38:23.599Z,1876
2017-11-05T08:39:32.809Z,1976
2017-11-05T08:40:41.684Z,2112
2017-11-05T08:41:51.230Z,2204
2017-11-05T08:43:00.103Z,2232
2017-11-05T08:44:08.980Z,2280
2017-11-05T08:45:17.860Z,2336
2017-11-05T08:46:26.737Z,2424
2017-11-05T08:47:35.275Z,2452
2017-11-05T08:48:44.152Z,2472
2017-11-05T08:49:53.367Z,2436
2017-11-05T08:51:02.246Z,2476
2017-11-05T08:52:11.455Z,2624
2017-11-05T08:53:19.996Z,2636
2017-11-05T08:54:28.880Z,2764
2017-11-05T08:55:37.421Z,2824
2017-11-05T08:56:46.298Z,3024
2017-11-05T08:57:54.838Z,3196
2017-11-05T08:59:03.724Z,3200
2017-11-05T09:00:12.264Z,3396
2017-11-05T09:01:21.139Z,3404
2017-11-05T09:02:30.011Z,3520
2017-11-05T09:03:38.884Z,3652
2017-11-05T09:04:47.426Z,3692
2017-11-05T09:05:56.305Z,3636
2017-11-05T09:07:05.520Z,3688
2017-11-05T09:08:14.729Z,3804
2017-11-05T09:09:23.614Z,3848
2017-11-05T09:10:32.158Z,4200
2017-11-05T09:11:41.035Z,4416
2017-11-05T09:12:49.626Z,4284
2017-11-05T09:13:58.504Z,4232
2017-11-05T09:15:07.385Z,4112
2017-11-05T09:16:15.921Z,4048
2017-11-05T09:17:24.798Z,3936
2017-11-05T09:18:33.335Z,3724
2017-11-05T09:19:42.208Z,3776
2017-11-05T09:20:51.085Z,4084
2017-11-05T09:21:59.966Z,4156
2017-11-05T09:23:09.178Z,4104
2017-11-05T09:24:18.051Z,4032
2017-11-05T09:25:26.924Z,4196
2017-11-05T09:26:36.138Z,4728
2017-11-05T09:27:45.016Z,5020
2017-11-05T09:28:53.893Z,5000
2017-11-05T09:30:03.108Z,4508
2017-11-05T09:31:11.651Z,4408
2017-11-05T09:32:20.190Z,4416
2017-11-05T09:33:28.728Z,4220
2017-11-05T09:34:37.606Z,3896
2017-11-05T09:35:46.822Z,3980
2017-11-05T09:36:56.028Z,4092
2017-11-05T09:38:05.345Z,4040
2017-11-05T09:39:14.250Z,4136
2017-11-05T09:40:23.147Z,4224
2017-11-05T09:41:31.690Z,4232
2017-11-05T09:42:40.564Z,4048
2017-11-05T09:43:49.781Z,4012
2017-11-05T09:44:59.462Z,3884
2017-11-05T09:46:08.353Z,3996
2017-11-05T09:47:17.899Z,3840
2017-11-05T09:48:26.437Z,3780
2017-11-05T09:49:35.320Z,4064
2017-11-05T09:50:44.902Z,4468
2017-11-05T09:51:53.759Z,5128
2017-11-05T09:53:02.637Z,4388
2017-11-05T09:54:11.515Z,4560
2017-11-05T09:55:20.407Z,4172
2017-11-05T09:56:29.621Z,4032
2017-11-05T09:57:38.506Z,3932
2017-11-05T09:58:47.380Z,3628
2017-11-05T09:59:56.257Z,3452
2017-11-05T10:01:04.791Z,3348
2017-11-05T10:02:13.671Z,3060
2017-11-05T10:03:22.563Z,3136
2017-11-05T10:04:31.092Z,3212
2017-11-05T10:05:39.643Z,3184
2017-11-05T10:06:48.861Z,3084
2017-11-05T10:07:57.746Z,3044
2017-11-05T10:09:07.118Z,3052
2017-11-05T10:10:16.364Z,3104
2017-11-05T10:11:24.889Z,3096
2017-11-05T10:12:33.784Z,3064
2017-11-05T10:13:43.008Z,3044
2017-11-05T10:14:51.894Z,3068
2017-11-05T10:16:01.452Z,3028
2017-11-05T10:17:10.335Z,3000
2017-11-05T10:18:19.215Z,2988
2017-11-05T10:19:28.444Z,2968
2017-11-05T10:20:37.673Z,2952
2017-11-05T10:21:46.217Z,2956
2017-11-05T10:22:55.094Z,2968
2017-11-05T10:24:04.305Z,2980
2017-11-05T10:25:13.519Z,2992
2017-11-05T10:26:22.739Z,2996
2017-11-05T10:27:31.278Z,3016
2017-11-05T10:28:39.815Z,3008
2017-11-05T10:29:48.355Z,2992
2017-11-05T10:30:57.229Z,3008
2017-11-05T10:32:06.103Z,3016
2017-11-05T10:33:15.984Z,3024
2017-11-05T10:34:24.867Z,3040
2017-11-05T10:35:33.743Z,3064
2017-11-05T10:36:42.626Z,3084
2017-11-05T10:37:51.840Z,3112
2017-11-05T10:39:00.378Z,3100
2017-11-05T10:40:08.918Z,3080
2017-11-05T10:41:17.457Z,3068
2017-11-05T10:42:26.333Z,3088
2017-11-05T10:43:35.209Z,3068
2017-11-05T10:44:44.455Z,3080
2017-11-05T10:45:53.663Z,3072
2017-11-05T10:47:02.535Z,2928
2017-11-05T10:48:11.753Z,3052
2017-11-05T10:49:20.294Z,3048
2017-11-05T10:50:28.830Z,3020
2017-11-05T10:51:37.368Z,2708
2017-11-05T10:52:46.579Z,3008
2017-11-05T10:53:55.495Z,2976
2017-11-05T10:55:04.708Z,3000
2017-11-05T10:56:13.593Z,2996
2017-11-05T10:57:22.470Z,3012
2017-11-05T10:58:31.011Z,3032
2017-11-05T10:59:39.550Z,3128
2017-11-05T11:00:48.090Z,3300
2017-11-05T11:01:56.634Z,3920
2017-11-05T11:03:05.173Z,3620
2017-11-05T11:04:14.049Z,3352
2017-11-05T11:05:22.925Z,3024
2017-11-05T11:06:31.808Z,3708
2017-11-05T11:07:40.680Z,4780
2017-11-05T11:08:49.562Z,4312
2017-11-05T11:09:58.773Z,3848
2017-11-05T11:11:07.311Z,3980
2017-11-05T11:12:15.852Z,3520
2017-11-05T11:13:24.391Z,3428
2017-11-05T11:14:33.271Z,3308
2017-11-05T11:15:42.495Z,3688
2017-11-05T11:16:51.035Z,4456
2017-11-05T11:17:59.572Z,4672
2017-11-05T11:19:08.114Z,4040
2017-11-05T11:20:16.995Z,3920
2017-11-05T11:21:25.536Z,3476
2017-11-05T11:22:34.099Z,3612
2017-11-05T11:23:42.977Z,3884
2017-11-05T11:24:51.851Z,3868
2017-11-05T11:26:00.727Z,3904
2017-11-05T11:27:09.601Z,3952
2017-11-05T11:28:18.142Z,3756
2017-11-05T11:29:26.690Z,4004
2017-11-05T11:30:35.912Z,5368
2017-11-05T11:31:45.123Z,6296
2017-11-05T11:32:53.666Z,5872
2017-11-05T11:34:02.211Z,4112
2017-11-05T11:35:11.086Z,4492
2017-11-05T11:36:19.627Z,5444
2017-11-05T11:37:28.504Z,5752
2017-11-05T11:38:37.386Z,5092
2017-11-05T11:39:45.922Z,4592
2017-11-05T11:40:54.466Z,5260
2017-11-05T11:42:03.679Z,5116
2017-11-05T11:43:12.557Z,4716
2017-11-05T11:44:21.436Z,4396
2017-11-05T11:45:30.651Z,5180
2017-11-05T11:46:39.195Z,7936
2017-11-05T11:47:48.074Z,9564
2017-11-05T11:48:56.953Z,9632
2017-11-05T11:50:05.496Z,7860
2017-11-05T11:51:14.370Z,6132
2017-11-05T11:52:22.930Z,5392
2017-11-05T11:53:31.829Z,5560
2017-11-05T11:54:40.391Z,5172
2017-11-05T11:55:49.610Z,4144
2017-11-05T11:56:58.498Z,3528
2017-11-05T11:58:07.779Z,3304
2017-11-05T11:59:16.692Z,3320
2017-11-05T12:00:25.595Z,3560
2017-11-05T12:01:34.833Z,3856
2017-11-05T12:02:43.717Z,3864
2017-11-05T12:03:52.613Z,3556
2017-11-05T12:05:01.513Z,3416
2017-11-05T12:06:11.082Z,3384
2017-11-05T12:07:19.983Z,3400
2017-11-05T12:08:28.525Z,3468
2017-11-05T12:09:37.409Z,3584
2017-11-05T12:10:46.623Z,3616
2017-11-05T12:11:55.504Z,3676
2017-11-05T12:13:04.046Z,3760
2017-11-05T12:14:12.927Z,4028
2017-11-05T12:15:21.813Z,4316
2017-11-05T12:16:30.693Z,4208
2017-11-05T12:17:39.232Z,3944
2017-11-05T12:18:47.775Z,3864
2017-11-05T12:19:57.653Z,3856
2017-11-05T12:21:06.886Z,4112
2017-11-05T12:22:15.428Z,4048
2017-11-05T12:23:24.308Z,4040
2017-11-05T12:24:32.851Z,3936
2017-11-05T12:25:41.644Z,3912
2017-11-05T12:26:50.235Z,4080
2017-11-05T12:27:58.779Z,4216
2017-11-05T12:29:08.005Z,4288
2017-11-05T12:30:16.949Z,4344
2017-11-05T12:31:25.549Z,4256
2017-11-05T12:32:34.092Z,4204
2017-11-05T12:33:43.303Z,3936
2017-11-05T12:34:52.190Z,3868
2017-11-05T12:36:01.406Z,3700
2017-11-05T12:37:09.945Z,3760
2017-11-05T12:38:18.824Z,4072
2017-11-05T12:39:27.897Z,4404
2017-11-05T12:40:36.920Z,4696
2017-11-05T12:41:45.515Z,4612
2017-11-05T12:42:54.065Z,4848
2017-11-05T12:44:02.946Z,4908
2017-11-05T12:45:12.463Z,4828
2017-11-05T12:46:21.333Z,4596
2017-11-05T12:47:30.215Z,4436
2017-11-05T12:48:38.778Z,4448
2017-11-05T12:49:47.660Z,4508
2017-11-05T12:50:56.544Z,4528
2017-11-05T12:52:05.470Z,4464
2017-11-05T12:53:14.353Z,4332
2017-11-05T12:54:23.236Z,4300
2017-11-05T12:55:32.461Z,4532
2017-11-05T12:56:41.662Z,4704
2017-11-05T12:57:50.551Z,4576
2017-11-05T12:58:59.430Z,4520
2017-11-05T13:00:07.972Z,4632
2017-11-05T13:01:16.859Z,4528
2017-11-05T13:02:25.731Z,4452
2017-11-05T13:03:35.057Z,4548
2017-11-05T13:04:43.936Z,4588
2017-11-05T13:05:53.149Z,4680
2017-11-05T13:07:02.042Z,4704
2017-11-05T13:08:10.584Z,4512
2017-11-05T13:09:19.115Z,4224
2017-11-05T13:10:27.991Z,4168
2017-11-05T13:11:36.862Z,4032
2017-11-05T13:12:46.748Z,3864
2017-11-05T13:13:55.969Z,3648
2017-11-05T13:15:05.193Z,3456
2017-11-05T13:16:13.732Z,3144
2017-11-05T13:17:22.619Z,2760
2017-11-05T13:18:31.833Z,2344
2017-11-05T13:19:40.372Z,2032
2017-11-05T13:20:48.912Z,1864
2017-11-05T13:21:58.127Z,1688
2017-11-05T13:23:07.003Z,1504
2017-11-05T13:24:15.879Z,1336
2017-11-05T13:25:25.096Z,1160
2017-11-05T13:26:34.309Z,1176
2017-11-05T13:27:42.850Z,1320
2017-11-05T13:28:51.726Z,1556
2017-11-05T13:30:00.610Z,1776
2017-11-05T13:31:09.153Z,1916
2017-11-05T13:32:18.031Z,1968
2017-11-05T13:33:27.585Z,1976
2017-11-05T13:34:36.459Z,2080
2017-11-05T13:35:45.483Z,2240
2017-11-05T13:36:54.368Z,2344
2017-11-05T13:38:03.598Z,2528
2017-11-05T13:39:12.146Z,2880
2017-11-05T13:40:20.683Z,3052
2017-11-05T13:41:29.562Z,3032
2017-11-05T13:42:38.111Z,2848
2017-11-05T13:43:46.987Z,2604
2017-11-05T13:44:55.871Z,2980
2017-11-05T13:46:04.742Z,3232
2017-11-05T13:47:13.625Z,3036
2017-11-05T13:48:22.167Z,2744
2017-11-05T13:49:30.747Z,2784
2017-11-05T13:50:39.625Z,3312
2017-11-05T13:51:48.502Z,3852
2017-11-05T13:52:57.045Z,3616
2017-11-05T13:54:06.263Z,3040
2017-11-05T13:55:15.138Z,2292
2017-11-05T13:56:24.174Z,1356
2017-11-05T13:57:33.107Z,832
2017-11-05T13:58:41.976Z,636
2017-11-05T13:59:50.515Z,496
2017-11-05T14:00:59.055Z,444
2017-11-05T14:02:08.289Z,512
2017-11-05T14:03:16.829Z,576
2017-11-05T14:04:26.047Z,624
2017-11-05T14:05:34.594Z,584
2017-11-05T14:06:43.471Z,552
2017-11-05T14:07:52.687Z,540
2017-11-05T14:09:01.613Z,528
2017-11-05T14:10:10.153Z,476
2017-11-05T14:11:19.030Z,428
2017-11-05T14:12:27.909Z,436
2017-11-05T14:13:37.122Z,684
2017-11-05T14:14:46.886Z,984
2017-11-05T14:15:55.434Z,1336
2017-11-05T14:17:04.305Z,1372
2017-11-05T14:18:13.200Z,1304
2017-11-05T14:19:21.740Z,1196
2017-11-05T14:20:30.630Z,1048
2017-11-05T14:21:39.172Z,948
2017-11-05T14:22:48.049Z,872
2017-11-05T14:23:57.262Z,864
2017-11-05T14:25:06.476Z,952
2017-11-05T14:26:15.795Z,1000
2017-11-05T14:27:24.335Z,976
2017-11-05T14:28:32.876Z,1160
2017-11-05T14:29:41.751Z,1804
2017-11-05T14:30:50.289Z,2124
2017-11-05T14:31:59.497Z,2216
2017-11-05T14:33:08.376Z,1908
2017-11-05T14:34:17.590Z,1120
2017-11-05T14:35:26.129Z,448
2017-11-05T14:36:35.016Z,296
2017-11-05T14:37:43.906Z,260
2017-11-05T14:38:53.156Z,292
2017-11-05T14:40:02.043Z,356
2017-11-05T14:41:10.596Z,420
2017-11-05T14:42:19.171Z,452
2017-11-05T14:43:27.708Z,480
2017-11-05T14:44:36.585Z,548
2017-11-05T14:45:45.122Z,620
2017-11-05T14:46:53.996Z,696
2017-11-05T14:48:03.206Z,720
2017-11-05T14:49:11.746Z,744
2017-11-05T14:50:20.288Z,808
2017-11-05T14:51:29.832Z,972
2017-11-05T14:52:38.703Z,1168
2017-11-05T14:53:47.912Z,1376
2017-11-05T14:54:56.973Z,1684
2017-11-05T14:56:06.184Z,2180
2017-11-05T14:57:15.061Z,2844
2017-11-05T14:58:24.287Z,3344
2017-11-05T14:59:32.875Z,3544
2017-11-05T15:00:42.304Z,3440
2017-11-05T15:01:51.178Z,3208
2017-11-05T15:03:00.052Z,3052
2017-11-05T15:04:08.604Z,2912
2017-11-05T15:05:17.146Z,2800
2017-11-05T15:06:26.025Z,2628
2017-11-05T15:07:34.899Z,2472
2017-11-05T15:08:43.773Z,2384
2017-11-05T15:09:52.312Z,2280
2017-11-05T15:11:01.934Z,2128
2017-11-05T15:12:10.819Z,1924
2017-11-05T15:13:20.029Z,1816
2017-11-05T15:14:29.572Z,1756
2017-11-05T15:15:38.451Z,1680
2017-11-05T15:16:47.665Z,1640
2017-11-05T15:17:56.884Z,1648
2017-11-05T15:19:05.761Z,1584
2017-11-05T15:20:15.361Z,1456
2017-11-05T15:21:24.578Z,1348
2017-11-05T15:22:33.451Z,1280
2017-11-05T15:23:41.991Z,1216
2017-11-05T15:24:50.531Z,1132
2017-11-05T15:25:59.424Z,1100
2017-11-05T15:27:08.316Z,1084
2017-11-05T15:28:16.851Z,1064
2017-11-05T15:29:25.728Z,1028
2017-11-05T15:30:34.606Z,1012
2017-11-05T15:31:43.818Z,1044
2017-11-05T15:32:52.701Z,992
2017-11-05T15:34:01.577Z,928
2017-11-05T15:35:10.457Z,880
2017-11-05T15:36:19.686Z,840
2017-11-05T15:37:28.230Z,832
2017-11-05T15:38:37.786Z,808
2017-11-05T15:39:46.324Z,744
2017-11-05T15:40:55.198Z,672
2017-11-05T15:42:03.737Z,608
2017-11-05T15:43:12.279Z,548
2017-11-05T15:44:21.156Z,476
2017-11-05T15:45:29.698Z,420
2017-11-05T15:46:38.237Z,380
2017-11-05T15:47:46.778Z,352
2017-11-05T15:48:55.654Z,336
2017-11-05T15:50:04.534Z,320
2017-11-05T15:51:13.068Z,308
2017-11-05T15:52:21.608Z,284
2017-11-05T15:53:30.152Z,264
2017-11-05T15:54:39.032Z,244
2017-11-05T15:55:47.906Z,224
2017-11-05T15:56:56.783Z,204
2017-11-05T15:58:05.657Z,188
2017-11-05T15:59:14.537Z,172
2017-11-05T16:00:24.199Z,152
2017-11-05T16:01:32.737Z,140